»·PEaware :: UPS556 KSEA-KSFO

UPS556 :: KSEA-KSFO

FLIGHT INFORMATION

Flight Status: Arrived
Operator:
United Parcel Service
More flights by this operator :: More flights under this callsign
Pilot: Isaac R. (8401)
Aircraft: Unknown
(B748)
More flights by this aircraft type
Origin: KSEA Seattle-Tacoma Intl
United States
Destination: KSFO San Francisco Intl
United States
More flights between these airports :: More routes between these airports
Route: +HAROB6 FEPOT Q3 FOWND MLBEC BDEGA3
File this flight plan on PilotEdge
Remarks:
Altitude:
(Current/Filed)
41,000ft
Speed:
(Current/Filed)
185kts
Departed: 27-Mar-19 07:06 PM
Arrived: 27-Mar-19 08:48 PM
Distance/Time
Traveled:
589nm/1:42
Distance/Time
To Go:
Arrived

Flight Plot

Page will automatically refresh every two minutes.

Flight plan parsing failed; only flown route is shown


Map Options




Map Legend


Flown Route
Filed Route
Departure Airport
Arrival Airport
Navaid (VOR, NDB)
Fix

Horizontal Profiles

Position Reports

Time Latitude Longitude Heading Altitude Ground
Speed
27-Mar-19 18:30 47.451844 -122.303779 89 446ft 0kts
27-Mar-19 18:30 47.451844 -122.303779 89 446ft 0kts
27-Mar-19 18:32 47.451844 -122.303779 89 446ft 0kts
27-Mar-19 18:33 47.451844 -122.303779 89 446ft 0kts
27-Mar-19 18:33 47.451844 -122.303779 89 446ft 0kts
27-Mar-19 18:35 47.451844 -122.303779 89 446ft 0kts
27-Mar-19 18:35 47.451844 -122.303779 89 446ft 0kts
27-Mar-19 18:37 47.451844 -122.303779 89 446ft 0kts
27-Mar-19 18:37 47.451844 -122.303779 89 446ft 0kts
27-Mar-19 18:38 47.451844 -122.303779 89 446ft 0kts
27-Mar-19 18:40 47.451844 -122.303779 89 446ft 0kts
27-Mar-19 18:40 47.451844 -122.303779 89 446ft 0kts
27-Mar-19 18:41 47.451844 -122.303779 89 446ft 0kts
27-Mar-19 18:42 47.451844 -122.303779 89 446ft 0kts
27-Mar-19 18:43 47.451844 -122.303779 89 446ft 0kts
27-Mar-19 18:44 47.451844 -122.303779 89 446ft 0kts
27-Mar-19 18:45 47.451844 -122.303779 89 446ft 0kts
27-Mar-19 18:46 47.451844 -122.303779 89 446ft 0kts
27-Mar-19 18:47 47.451844 -122.303779 89 446ft 0kts
27-Mar-19 18:48 47.451844 -122.303779 89 446ft 0kts
27-Mar-19 18:49 47.451844 -122.303779 89 446ft 0kts
27-Mar-19 18:50 47.451844 -122.303779 89 446ft 0kts
27-Mar-19 18:51 47.451844 -122.303779 89 446ft 0kts
27-Mar-19 18:52 47.451844 -122.303779 89 446ft 0kts
27-Mar-19 18:53 47.451844 -122.303779 89 446ft 0kts
27-Mar-19 18:54 47.451841 -122.304129 89 446ft 2kts
27-Mar-19 18:55 47.451835 -122.305071 89 446ft 0kts
27-Mar-19 18:56 47.451835 -122.305071 89 446ft 0kts
27-Mar-19 18:57 47.451835 -122.305071 89 446ft 0kts
27-Mar-19 18:58 47.451835 -122.305071 89 446ft 0kts
27-Mar-19 18:59 47.451835 -122.305071 89 446ft 0kts
27-Mar-19 19:00 47.452128 -122.304942 349 446ft 6kts
27-Mar-19 19:01 47.454952 -122.305086 0 446ft 12kts
27-Mar-19 19:02 47.459446 -122.304988 0 446ft 19kts
27-Mar-19 19:03 47.463707 -122.306630 270 446ft 7kts
27-Mar-19 19:04 47.462239 -122.307814 180 446ft 32kts
27-Mar-19 19:05 47.430529 -122.308503 180 743ft 163kts
27-Mar-19 19:06 47.385705 -122.307279 174 2371ft 174kts
27-Mar-19 19:07 47.328408 -122.314832 210 2942ft 248kts
27-Mar-19 19:08 47.308156 -122.412835 263 5348ft 271kts
27-Mar-19 19:09 47.309078 -122.526611 271 8078ft 284kts
27-Mar-19 19:10 47.312652 -122.645864 270 10518ft 306kts
27-Mar-19 19:11 47.311305 -122.780536 254 12733ft 335kts
27-Mar-19 19:12 47.278320 -122.911442 245 15140ft 359kts
27-Mar-19 19:13 47.227867 -123.052196 223 16525ft 411kts
27-Mar-19 19:14 47.136192 -123.158582 214 19164ft 427kts
27-Mar-19 19:15 47.026159 -123.215747 182 21644ft 434kts
27-Mar-19 19:16 46.903605 -123.213632 177 23967ft 447kts
27-Mar-19 19:17 46.777054 -123.208853 177 26064ft 460kts
27-Mar-19 19:18 46.647682 -123.204437 176 27756ft 471kts
27-Mar-19 19:19 46.516370 -123.200069 176 29496ft 470kts
27-Mar-19 19:20 46.385857 -123.195756 176 31121ft 467kts
27-Mar-19 19:21 46.256584 -123.191514 177 32497ft 464kts
27-Mar-19 19:22 46.128497 -123.187333 177 33776ft 459kts
27-Mar-19 19:23 46.001068 -123.183208 178 34709ft 459kts
27-Mar-19 19:24 45.873240 -123.179069 178 35456ft 459kts
27-Mar-19 19:25 45.745662 -123.174965 179 36092ft 458kts
27-Mar-19 19:26 45.618026 -123.170876 179 36537ft 460kts
27-Mar-19 19:27 45.489818 -123.166787 179 36973ft 460kts
27-Mar-19 19:28 45.361876 -123.162729 179 37356ft 460kts
27-Mar-19 19:29 45.233884 -123.158682 180 37663ft 461kts
27-Mar-19 19:30 45.105496 -123.154643 180 37990ft 461kts
27-Mar-19 19:31 44.977437 -123.150632 180 38288ft 461kts
27-Mar-19 19:32 44.850146 -123.146662 180 38933ft 457kts
27-Mar-19 19:33 44.723140 -123.142706 180 38990ft 456kts
27-Mar-19 19:34 44.595981 -123.138785 181 38988ft 456kts
27-Mar-19 19:35 44.469217 -123.134769 180 38988ft 456kts
27-Mar-19 19:36 44.342568 -123.130219 181 38980ft 456kts
27-Mar-19 19:37 44.215479 -123.125699 181 38966ft 456kts
27-Mar-19 19:38 44.088794 -123.121187 181 38960ft 455kts
27-Mar-19 19:39 43.962248 -123.116693 181 38960ft 454kts
27-Mar-19 19:40 43.835919 -123.112254 181 38960ft 453kts
27-Mar-19 19:41 43.709895 -123.107843 181 38958ft 453kts
27-Mar-19 19:42 43.584007 -123.103448 181 38956ft 453kts
27-Mar-19 19:43 43.458171 -123.099074 181 38952ft 453kts
27-Mar-19 19:44 43.331969 -123.094708 181 38951ft 453kts
27-Mar-19 19:45 43.206332 -123.090378 181 38950ft 452kts
27-Mar-19 19:46 43.080836 -123.086071 182 38950ft 452kts
27-Mar-19 19:47 42.954971 -123.081772 182 38949ft 451kts
27-Mar-19 19:48 42.829739 -123.077506 182 38947ft 450kts
27-Mar-19 19:49 42.704586 -123.073254 182 38944ft 450kts
27-Mar-19 19:50 42.579074 -123.069020 182 38949ft 449kts
27-Mar-19 19:51 42.454174 -123.064855 182 38956ft 449kts
27-Mar-19 19:52 42.329393 -123.060820 182 38957ft 449kts
27-Mar-19 19:53 42.204514 -123.056800 182 38956ft 450kts
27-Mar-19 19:54 42.079229 -123.052765 182 38954ft 449kts
27-Mar-19 19:55 41.954573 -123.048751 183 38952ft 447kts
27-Mar-19 19:56 41.830424 -123.044797 183 38951ft 447kts
27-Mar-19 19:57 41.705784 -123.040837 183 38948ft 447kts
27-Mar-19 19:58 41.581405 -123.036885 183 38950ft 447kts
27-Mar-19 19:59 41.457246 -123.032977 183 38956ft 447kts
27-Mar-19 20:00 41.332562 -123.029065 183 38978ft 447kts
27-Mar-19 20:01 41.208316 -123.025308 183 38987ft 447kts
27-Mar-19 20:02 41.084079 -123.021567 183 38994ft 447kts
27-Mar-19 20:03 40.959866 -123.017828 183 39002ft 447kts
27-Mar-19 20:04 40.835242 -123.014091 184 39008ft 447kts
27-Mar-19 20:05 40.711075 -123.010368 184 39009ft 446kts
27-Mar-19 20:06 40.586940 -123.006670 184 39008ft 447kts
27-Mar-19 20:07 40.462314 -123.002975 184 39008ft 447kts
27-Mar-19 20:08 40.338203 -122.999308 184 39006ft 446kts
27-Mar-19 20:09 40.214084 -122.995660 184 39005ft 447kts
27-Mar-19 20:10 40.089353 -122.991997 184 39022ft 447kts
27-Mar-19 20:11 39.965207 -122.988361 184 39011ft 446kts
27-Mar-19 20:12 39.841546 -122.984767 185 39040ft 445kts
27-Mar-19 20:13 39.717479 -122.981169 185 39057ft 445kts
27-Mar-19 20:14 39.593832 -122.977594 185 39067ft 445kts
27-Mar-19 20:15 39.470073 -122.974030 185 38863ft 444kts
27-Mar-19 20:16 39.346281 -122.970466 185 36760ft 443kts
27-Mar-19 20:17 39.223137 -122.966948 185 34447ft 438kts
27-Mar-19 20:18 39.104070 -122.963560 185 32644ft 419kts
27-Mar-19 20:19 38.990256 -122.961247 186 30908ft 401kts
27-Mar-19 20:20 38.880654 -122.958383 182 29178ft 390kts
27-Mar-19 20:21 38.773775 -122.929433 174 27536ft 391kts
27-Mar-19 20:22 38.669618 -122.898215 174 25931ft 380kts
27-Mar-19 20:23 38.567716 -122.868199 174 24365ft 367kts
27-Mar-19 20:24 38.470378 -122.839439 173 23187ft 353kts
27-Mar-19 20:25 38.375507 -122.811621 173 21417ft 347kts
27-Mar-19 20:26 38.282596 -122.784455 172 19986ft 338kts
27-Mar-19 20:27 38.192014 -122.757960 172 18849ft 330kts
27-Mar-19 20:28 38.102125 -122.731820 171 17160ft 326kts
27-Mar-19 20:29 38.014826 -122.706557 171 15856ft 319kts
27-Mar-19 20:30 37.928566 -122.681687 171 14560ft 313kts
27-Mar-19 20:31 37.852792 -122.625386 145 13275ft 321kts
27-Mar-19 20:32 37.789067 -122.555956 146 12442ft 291kts
27-Mar-19 20:33 37.726457 -122.489972 145 11079ft 283kts
27-Mar-19 20:34 37.666933 -122.426613 145 11004ft 279kts
27-Mar-19 20:35 37.607487 -122.364583 151 10996ft 270kts
27-Mar-19 20:36 37.542390 -122.321828 159 9977ft 261kts
27-Mar-19 20:37 37.488543 -122.263894 118 8689ft 278kts
27-Mar-19 20:38 37.459731 -122.176987 124 7314ft 260kts
27-Mar-19 20:39 37.426143 -122.099312 124 6079ft 245kts
27-Mar-19 20:40 37.433454 -122.022474 31 6011ft 260kts
27-Mar-19 20:41 37.488170 -122.052440 295 5379ft 230kts
27-Mar-19 20:42 37.516578 -122.126174 292 4029ft 236kts
27-Mar-19 20:43 37.543893 -122.191396 292 2876ft 181kts
27-Mar-19 20:44 37.566528 -122.245238 293 1987ft 167kts
27-Mar-19 20:45 37.588137 -122.296715 294 1089ft 169kts
27-Mar-19 20:46 37.610542 -122.349793 295 176ft 168kts
27-Mar-19 20:47 37.627654 -122.390631 316 26ft 18kts
27-Mar-19 20:48 37.630338 -122.392268 336 26ft 11kts
27-Mar-19 20:49 37.631074 -122.392636 344 26ft 6kts
27-Mar-19 20:50 37.632198 -122.391433 342 26ft 9kts
27-Mar-19 20:51 37.634019 -122.390571 66 26ft 6kts
27-Mar-19 20:53 37.634885 -122.389292 15 26ft 4kts
27-Mar-19 20:54 37.635239 -122.389175 14 26ft 0kts
27-Mar-19 20:55 37.635239 -122.389175 14 26ft 0kts
27-Mar-19 20:56 37.635239 -122.389175 14 26ft 0kts
27-Mar-19 20:57 37.635239 -122.389175 14 26ft 0kts
27-Mar-19 20:58 37.635239 -122.389175 14 26ft 0kts

Navigation Log

Ident Type
Flight plan parsing failed, navigation log unavailable